sensor_id;sensor_type;location;lat;lon;timestamp;temperature;humidity
80743;SHT31;70142;50.894;6.052;2023-06-22T00:01:24;21.85;61.99
80743;SHT31;70142;50.894;6.052;2023-06-22T00:03:58;21.92;61.34
80743;SHT31;70142;50.894;6.052;2023-06-22T00:06:32;21.81;62.30
80743;SHT31;70142;50.894;6.052;2023-06-22T00:09:05;21.78;63.13
80743;SHT31;70142;50.894;6.052;2023-06-22T00:11:39;21.74;64.14
80743;SHT31;70142;50.894;6.052;2023-06-22T00:14:12;21.74;63.88
80743;SHT31;70142;50.894;6.052;2023-06-22T00:16:45;21.61;64.40
80743;SHT31;70142;50.894;6.052;2023-06-22T00:19:21;21.52;65.11
80743;SHT31;70142;50.894;6.052;2023-06-22T00:21:55;21.51;65.27
80743;SHT31;70142;50.894;6.052;2023-06-22T00:24:34;21.54;65.15
80743;SHT31;70142;50.894;6.052;2023-06-22T00:27:07;21.65;64.07
80743;SHT31;70142;50.894;6.052;2023-06-22T00:29:41;21.65;64.12
80743;SHT31;70142;50.894;6.052;2023-06-22T00:32:14;21.66;63.88
80743;SHT31;70142;50.894;6.052;2023-06-22T00:34:53;21.62;63.79
80743;SHT31;70142;50.894;6.052;2023-06-22T00:37:26;21.69;63.49
80743;SHT31;70142;50.894;6.052;2023-06-22T00:40:01;21.62;63.69
80743;SHT31;70142;50.894;6.052;2023-06-22T00:42:36;21.66;64.45
80743;SHT31;70142;50.894;6.052;2023-06-22T00:45:10;21.68;64.04
80743;SHT31;70142;50.894;6.052;2023-06-22T00:47:44;21.65;64.18
80743;SHT31;70142;50.894;6.052;2023-06-22T00:50:21;21.69;64.21
80743;SHT31;70142;50.894;6.052;2023-06-22T00:52:57;21.63;63.94
80743;SHT31;70142;50.894;6.052;2023-06-22T00:55:31;21.62;63.57
80743;SHT31;70142;50.894;6.052;2023-06-22T00:58:08;21.62;63.00
80743;SHT31;70142;50.894;6.052;2023-06-22T01:00:42;21.52;63.55
80743;SHT31;70142;50.894;6.052;2023-06-22T01:03:16;21.44;63.71
80743;SHT31;70142;50.894;6.052;2023-06-22T01:06:01;21.48;64.02
80743;SHT31;70142;50.894;6.052;2023-06-22T01:08:44;21.49;64.09
80743;SHT31;70142;50.894;6.052;2023-06-22T01:11:24;21.37;64.46
80743;SHT31;70142;50.894;6.052;2023-06-22T01:14:06;21.23;64.68
80743;SHT31;70142;50.894;6.052;2023-06-22T01:16:41;21.20;64.49
80743;SHT31;70142;50.894;6.052;2023-06-22T01:19:34;21.27;63.86
80743;SHT31;70142;50.894;6.052;2023-06-22T01:22:13;21.38;63.88
80743;SHT31;70142;50.894;6.052;2023-06-22T01:25:00;21.44;63.53
80743;SHT31;70142;50.894;6.052;2023-06-22T01:27:50;21.41;63.98
80743;SHT31;70142;50.894;6.052;2023-06-22T01:30:28;21.45;63.39
80743;SHT31;70142;50.894;6.052;2023-06-22T01:33:05;21.49;63.10
80743;SHT31;70142;50.894;6.052;2023-06-22T01:35:40;21.52;63.63
80743;SHT31;70142;50.894;6.052;2023-06-22T01:38:14;21.59;61.93
80743;SHT31;70142;50.894;6.052;2023-06-22T01:40:48;21.59;62.30
80743;SHT31;70142;50.894;6.052;2023-06-22T01:43:24;21.68;61.02
80743;SHT31;70142;50.894;6.052;2023-06-22T01:46:01;21.76;61.12
80743;SHT31;70142;50.894;6.052;2023-06-22T01:48:35;21.76;61.09
80743;SHT31;70142;50.894;6.052;2023-06-22T01:51:08;21.78;61.26
80743;SHT31;70142;50.894;6.052;2023-06-22T01:53:43;21.79;60.61
80743;SHT31;70142;50.894;6.052;2023-06-22T01:56:17;21.89;60.74
80743;SHT31;70142;50.894;6.052;2023-06-22T01:59:01;21.86;60.75
80743;SHT31;70142;50.894;6.052;2023-06-22T02:01:43;21.81;61.20
80743;SHT31;70142;50.894;6.052;2023-06-22T02:04:23;21.75;61.29
80743;SHT31;70142;50.894;6.052;2023-06-22T02:07:04;21.71;61.61
80743;SHT31;70142;50.894;6.052;2023-06-22T02:09:43;21.66;61.80
80743;SHT31;70142;50.894;6.052;2023-06-22T02:12:23;21.68;61.91
80743;SHT31;70142;50.894;6.052;2023-06-22T02:15:00;21.65;62.22
80743;SHT31;70142;50.894;6.052;2023-06-22T02:17:35;21.49;62.57
80743;SHT31;70142;50.894;6.052;2023-06-22T02:20:12;21.49;62.86
80743;SHT31;70142;50.894;6.052;2023-06-22T02:22:46;21.51;62.99
80743;SHT31;70142;50.894;6.052;2023-06-22T02:25:19;21.48;63.03
80743;SHT31;70142;50.894;6.052;2023-06-22T02:27:53;21.44;63.19
80743;SHT31;70142;50.894;6.052;2023-06-22T02:30:26;21.38;63.59
80743;SHT31;70142;50.894;6.052;2023-06-22T02:33:01;21.30;64.08
80743;SHT31;70142;50.894;6.052;2023-06-22T02:35:34;21.28;64.08
80743;SHT31;70142;50.894;6.052;2023-06-22T02:38:10;21.21;64.47
80743;SHT31;70142;50.894;6.052;2023-06-22T02:40:44;21.28;64.43
80743;SHT31;70142;50.894;6.052;2023-06-22T02:43:17;21.39;64.15
80743;SHT31;70142;50.894;6.052;2023-06-22T02:45:50;21.30;64.67
80743;SHT31;70142;50.894;6.052;2023-06-22T02:48:25;21.24;64.98
80743;SHT31;70142;50.894;6.052;2023-06-22T02:50:58;21.17;65.41
80743;SHT31;70142;50.894;6.052;2023-06-22T02:53:34;21.18;65.49
80743;SHT31;70142;50.894;6.052;2023-06-22T02:56:10;21.23;65.38
80743;SHT31;70142;50.894;6.052;2023-06-22T03:03:13;21.18;65.90
80743;SHT31;70142;50.894;6.052;2023-06-22T03:05:48;21.20;66.09
80743;SHT31;70142;50.894;6.052;2023-06-22T03:08:26;21.15;66.34
80743;SHT31;70142;50.894;6.052;2023-06-22T03:11:00;21.11;66.53
80743;SHT31;70142;50.894;6.052;2023-06-22T03:13:33;21.14;66.92
80743;SHT31;70142;50.894;6.052;2023-06-22T03:16:10;21.11;67.07
80743;SHT31;70142;50.894;6.052;2023-06-22T03:18:46;21.20;66.49
80743;SHT31;70142;50.894;6.052;2023-06-22T03:21:22;21.17;66.80
80743;SHT31;70142;50.894;6.052;2023-06-22T03:23:56;21.15;66.90
80743;SHT31;70142;50.894;6.052;2023-06-22T03:26:29;21.24;66.86
80743;SHT31;70142;50.894;6.052;2023-06-22T03:29:03;21.18;67.23
80743;SHT31;70142;50.894;6.052;2023-06-22T03:31:38;21.17;67.19
80743;SHT31;70142;50.894;6.052;2023-06-22T03:34:12;21.08;67.91
80743;SHT31;70142;50.894;6.052;2023-06-22T03:36:47;21.14;67.92
80743;SHT31;70142;50.894;6.052;2023-06-22T03:39:21;21.12;67.92
80743;SHT31;70142;50.894;6.052;2023-06-22T03:41:54;21.17;67.79
80743;SHT31;70142;50.894;6.052;2023-06-22T03:44:28;21.17;67.81
80743;SHT31;70142;50.894;6.052;2023-06-22T03:47:03;21.17;68.07
80743;SHT31;70142;50.894;6.052;2023-06-22T03:49:40;21.15;68.14
80743;SHT31;70142;50.894;6.052;2023-06-22T03:52:15;21.20;68.13
80743;SHT31;70142;50.894;6.052;2023-06-22T03:54:51;21.23;67.98
80743;SHT31;70142;50.894;6.052;2023-06-22T03:57:24;21.23;68.16
80743;SHT31;70142;50.894;6.052;2023-06-22T03:59:58;21.28;68.09
80743;SHT31;70142;50.894;6.052;2023-06-22T04:02:31;21.35;67.90
80743;SHT31;70142;50.894;6.052;2023-06-22T04:05:05;21.34;68.03
80743;SHT31;70142;50.894;6.052;2023-06-22T04:07:40;21.28;68.27
80743;SHT31;70142;50.894;6.052;2023-06-22T04:10:13;21.18;68.75
80743;SHT31;70142;50.894;6.052;2023-06-22T04:12:49;21.23;68.61
80743;SHT31;70142;50.894;6.052;2023-06-22T04:15:22;21.17;68.78
80743;SHT31;70142;50.894;6.052;2023-06-22T04:17:55;21.14;68.83
80743;SHT31;70142;50.894;6.052;2023-06-22T04:20:29;21.11;69.22
80743;SHT31;70142;50.894;6.052;2023-06-22T04:23:05;21.12;69.37
80743;SHT31;70142;50.894;6.052;2023-06-22T04:25:38;21.12;69.21
80743;SHT31;70142;50.894;6.052;2023-06-22T04:28:12;21.20;68.99
80743;SHT31;70142;50.894;6.052;2023-06-22T04:30:45;21.32;68.60
80743;SHT31;70142;50.894;6.052;2023-06-22T04:33:19;21.35;68.51
80743;SHT31;70142;50.894;6.052;2023-06-22T04:35:52;21.41;68.40
80743;SHT31;70142;50.894;6.052;2023-06-22T04:38:27;21.48;68.20
80743;SHT31;70142;50.894;6.052;2023-06-22T04:41:00;21.42;68.26
80743;SHT31;70142;50.894;6.052;2023-06-22T04:43:35;21.61;67.85
80743;SHT31;70142;50.894;6.052;2023-06-22T04:46:08;21.79;67.21
80743;SHT31;70142;50.894;6.052;2023-06-22T04:48:41;21.88;67.05
80743;SHT31;70142;50.894;6.052;2023-06-22T04:51:15;22.09;66.86
80743;SHT31;70142;50.894;6.052;2023-06-22T04:53:49;22.12;66.05
80743;SHT31;70142;50.894;6.052;2023-06-22T04:56:23;22.13;66.51
80743;SHT31;70142;50.894;6.052;2023-06-22T04:59:03;22.26;66.29
80743;SHT31;70142;50.894;6.052;2023-06-22T05:01:36;22.35;65.90
80743;SHT31;70142;50.894;6.052;2023-06-22T05:04:10;22.39;65.85
80743;SHT31;70142;50.894;6.052;2023-06-22T05:06:43;22.40;65.76
80743;SHT31;70142;50.894;6.052;2023-06-22T05:09:18;22.46;65.72
80743;SHT31;70142;50.894;6.052;2023-06-22T05:11:52;22.49;65.48
80743;SHT31;70142;50.894;6.052;2023-06-22T05:14:25;22.37;65.89
80743;SHT31;70142;50.894;6.052;2023-06-22T05:16:59;22.32;65.93
80743;SHT31;70142;50.894;6.052;2023-06-22T05:19:36;22.24;66.39
80743;SHT31;70142;50.894;6.052;2023-06-22T05:22:09;22.19;66.42
80743;SHT31;70142;50.894;6.052;2023-06-22T05:24:46;22.21;66.38
80743;SHT31;70142;50.894;6.052;2023-06-22T05:27:21;22.29;66.18
80743;SHT31;70142;50.894;6.052;2023-06-22T05:29:55;22.35;66.43
80743;SHT31;70142;50.894;6.052;2023-06-22T05:32:30;22.27;66.59
80743;SHT31;70142;50.894;6.052;2023-06-22T05:35:05;22.39;66.67
80743;SHT31;70142;50.894;6.052;2023-06-22T05:37:38;22.59;65.76
80743;SHT31;70142;50.894;6.052;2023-06-22T05:40:13;22.57;66.00
80743;SHT31;70142;50.894;6.052;2023-06-22T05:42:46;22.59;66.02
80743;SHT31;70142;50.894;6.052;2023-06-22T05:45:20;22.61;65.78
80743;SHT31;70142;50.894;6.052;2023-06-22T05:47:53;22.65;65.83
80743;SHT31;70142;50.894;6.052;2023-06-22T05:50:27;22.60;65.70
80743;SHT31;70142;50.894;6.052;2023-06-22T05:53:00;22.63;65.70
80743;SHT31;70142;50.894;6.052;2023-06-22T05:55:35;22.61;65.88
80743;SHT31;70142;50.894;6.052;2023-06-22T05:58:08;22.67;66.31
80743;SHT31;70142;50.894;6.052;2023-06-22T06:00:42;22.74;65.74
80743;SHT31;70142;50.894;6.052;2023-06-22T06:03:15;22.77;65.39
80743;SHT31;70142;50.894;6.052;2023-06-22T06:05:49;22.65;66.25
80743;SHT31;70142;50.894;6.052;2023-06-22T06:08:22;22.63;65.83
80743;SHT31;70142;50.894;6.052;2023-06-22T06:10:57;22.59;66.01
80743;SHT31;70142;50.894;6.052;2023-06-22T06:13:30;22.49;66.74
80743;SHT31;70142;50.894;6.052;2023-06-22T06:16:04;22.61;66.59
80743;SHT31;70142;50.894;6.052;2023-06-22T06:18:37;22.57;66.16
80743;SHT31;70142;50.894;6.052;2023-06-22T06:21:10;22.50;66.36
80743;SHT31;70142;50.894;6.052;2023-06-22T06:23:43;22.39;66.73
80743;SHT31;70142;50.894;6.052;2023-06-22T06:26:18;22.30;67.35
80743;SHT31;70142;50.894;6.052;2023-06-22T06:29:00;22.53;66.60
80743;SHT31;70142;50.894;6.052;2023-06-22T06:31:34;22.44;66.61
80743;SHT31;70142;50.894;6.052;2023-06-22T06:34:08;22.40;67.23
80743;SHT31;70142;50.894;6.052;2023-06-22T06:36:41;22.59;66.88
80743;SHT31;70142;50.894;6.052;2023-06-22T06:39:14;22.75;66.58
80743;SHT31;70142;50.894;6.052;2023-06-22T06:41:52;22.77;66.25
80743;SHT31;70142;50.894;6.052;2023-06-22T06:44:25;22.78;65.88
80743;SHT31;70142;50.894;6.052;2023-06-22T06:46:59;22.72;66.23
80743;SHT31;70142;50.894;6.052;2023-06-22T06:49:34;22.81;65.83
80743;SHT31;70142;50.894;6.052;2023-06-22T06:52:07;22.81;65.71
80743;SHT31;70142;50.894;6.052;2023-06-22T06:54:40;22.84;65.56
80743;SHT31;70142;50.894;6.052;2023-06-22T06:57:16;23.11;65.29
80743;SHT31;70142;50.894;6.052;2023-06-22T06:59:49;23.24;64.76
80743;SHT31;70142;50.894;6.052;2023-06-22T07:02:23;23.11;64.93
80743;SHT31;70142;50.894;6.052;2023-06-22T07:04:57;23.65;63.69
80743;SHT31;70142;50.894;6.052;2023-06-22T07:07:30;23.92;62.95
80743;SHT31;70142;50.894;6.052;2023-06-22T07:10:05;24.24;62.12
80743;SHT31;70142;50.894;6.052;2023-06-22T07:12:40;24.46;61.74
80743;SHT31;70142;50.894;6.052;2023-06-22T07:15:13;25.29;60.01
80743;SHT31;70142;50.894;6.052;2023-06-22T07:17:47;25.02;60.24
80743;SHT31;70142;50.894;6.052;2023-06-22T07:20:20;25.11;60.43
80743;SHT31;70142;50.894;6.052;2023-06-22T07:22:53;25.23;59.41
80743;SHT31;70142;50.894;6.052;2023-06-22T07:25:26;25.52;58.72
80743;SHT31;70142;50.894;6.052;2023-06-22T07:28:04;25.21;59.26
80743;SHT31;70142;50.894;6.052;2023-06-22T07:30:38;24.89;59.91
80743;SHT31;70142;50.894;6.052;2023-06-22T07:33:11;24.43;61.52
80743;SHT31;70142;50.894;6.052;2023-06-22T07:35:45;24.41;62.08
80743;SHT31;70142;50.894;6.052;2023-06-22T07:38:19;24.10;61.78
80743;SHT31;70142;50.894;6.052;2023-06-22T07:40:52;24.46;61.69
80743;SHT31;70142;50.894;6.052;2023-06-22T07:43:27;25.41;59.20
80743;SHT31;70142;50.894;6.052;2023-06-22T07:46:01;25.52;58.87
80743;SHT31;70142;50.894;6.052;2023-06-22T07:48:37;25.92;57.43
80743;SHT31;70142;50.894;6.052;2023-06-22T07:51:11;25.87;58.27
80743;SHT31;70142;50.894;6.052;2023-06-22T07:53:46;26.08;57.11
80743;SHT31;70142;50.894;6.052;2023-06-22T07:56:20;26.44;56.72
80743;SHT31;70142;50.894;6.052;2023-06-22T07:58:55;27.06;54.81
80743;SHT31;70142;50.894;6.052;2023-06-22T08:01:30;27.00;54.96
80743;SHT31;70142;50.894;6.052;2023-06-22T08:04:03;26.65;55.29
80743;SHT31;70142;50.894;6.052;2023-06-22T08:06:38;26.54;55.65
80743;SHT31;70142;50.894;6.052;2023-06-22T08:09:11;26.75;55.44
80743;SHT31;70142;50.894;6.052;2023-06-22T08:11:44;26.01;57.63
80743;SHT31;70142;50.894;6.052;2023-06-22T08:14:21;26.20;57.27
80743;SHT31;70142;50.894;6.052;2023-06-22T08:16:54;26.14;56.78
80743;SHT31;70142;50.894;6.052;2023-06-22T08:19:27;25.98;57.64
80743;SHT31;70142;50.894;6.052;2023-06-22T08:22:01;26.21;57.16
80743;SHT31;70142;50.894;6.052;2023-06-22T08:24:34;26.95;55.57
80743;SHT31;70142;50.894;6.052;2023-06-22T08:27:09;27.13;54.79
80743;SHT31;70142;50.894;6.052;2023-06-22T08:29:45;26.81;54.78
80743;SHT31;70142;50.894;6.052;2023-06-22T08:32:20;26.44;55.96
80743;SHT31;70142;50.894;6.052;2023-06-22T08:34:55;26.58;55.65
80743;SHT31;70142;50.894;6.052;2023-06-22T08:37:28;26.45;56.26
80743;SHT31;70142;50.894;6.052;2023-06-22T08:40:05;26.27;56.75
80743;SHT31;70142;50.894;6.052;2023-06-22T08:42:40;26.41;56.62
80743;SHT31;70142;50.894;6.052;2023-06-22T08:45:16;26.58;56.88
80743;SHT31;70142;50.894;6.052;2023-06-22T08:47:49;27.45;55.51
80743;SHT31;70142;50.894;6.052;2023-06-22T08:50:25;27.81;53.53
80743;SHT31;70142;50.894;6.052;2023-06-22T08:52:58;28.14;53.29
80743;SHT31;70142;50.894;6.052;2023-06-22T08:55:31;28.35;52.70
80743;SHT31;70142;50.894;6.052;2023-06-22T08:58:05;28.42;52.52
80743;SHT31;70142;50.894;6.052;2023-06-22T09:00:39;27.96;54.47
80743;SHT31;70142;50.894;6.052;2023-06-22T09:03:13;28.05;54.17
80743;SHT31;70142;50.894;6.052;2023-06-22T09:05:47;29.00;51.84
80743;SHT31;70142;50.894;6.052;2023-06-22T09:08:20;28.99;52.42
80743;SHT31;70142;50.894;6.052;2023-06-22T09:10:53;28.00;54.15
80743;SHT31;70142;50.894;6.052;2023-06-22T09:13:30;27.76;55.25
80743;SHT31;70142;50.894;6.052;2023-06-22T09:16:06;27.69;56.02
80743;SHT31;70142;50.894;6.052;2023-06-22T09:18:39;28.01;55.23
80743;SHT31;70142;50.894;6.052;2023-06-22T09:21:13;27.69;55.91
80743;SHT31;70142;50.894;6.052;2023-06-22T09:23:47;26.91;57.58
80743;SHT31;70142;50.894;6.052;2023-06-22T09:26:23;26.92;57.50
80743;SHT31;70142;50.894;6.052;2023-06-22T09:28:56;26.94;57.53
80743;SHT31;70142;50.894;6.052;2023-06-22T09:31:32;27.20;57.20
80743;SHT31;70142;50.894;6.052;2023-06-22T09:34:05;26.72;58.96
80743;SHT31;70142;50.894;6.052;2023-06-22T09:36:38;26.38;59.46
80743;SHT31;70142;50.894;6.052;2023-06-22T09:39:14;26.13;60.45
80743;SHT31;70142;50.894;6.052;2023-06-22T09:41:47;26.05;60.54
80743;SHT31;70142;50.894;6.052;2023-06-22T09:44:21;26.13;60.36
80743;SHT31;70142;50.894;6.052;2023-06-22T09:46:56;25.65;61.64
80743;SHT31;70142;50.894;6.052;2023-06-22T09:49:30;25.67;61.85
80743;SHT31;70142;50.894;6.052;2023-06-22T09:52:19;25.67;61.38
80743;SHT31;70142;50.894;6.052;2023-06-22T09:54:56;25.76;61.45
80743;SHT31;70142;50.894;6.052;2023-06-22T09:57:30;25.92;60.85
80743;SHT31;70142;50.894;6.052;2023-06-22T10:00:04;26.05;60.92
80743;SHT31;70142;50.894;6.052;2023-06-22T10:02:42;26.20;60.51
80743;SHT31;70142;50.894;6.052;2023-06-22T10:05:16;26.21;61.02
80743;SHT31;70142;50.894;6.052;2023-06-22T10:07:50;26.05;61.93
80743;SHT31;70142;50.894;6.052;2023-06-22T10:10:23;25.94;63.98
80743;SHT31;70142;50.894;6.052;2023-06-22T10:12:57;25.77;65.43
80743;SHT31;70142;50.894;6.052;2023-06-22T10:15:35;25.56;68.10
80743;SHT31;70142;50.894;6.052;2023-06-22T10:18:10;25.33;69.21
80743;SHT31;70142;50.894;6.052;2023-06-22T10:20:43;25.16;70.62
80743;SHT31;70142;50.894;6.052;2023-06-22T10:23:16;25.02;70.62
80743;SHT31;70142;50.894;6.052;2023-06-22T10:25:50;24.99;70.74
80743;SHT31;70142;50.894;6.052;2023-06-22T10:28:23;24.94;72.09
80743;SHT31;70142;50.894;6.052;2023-06-22T10:30:57;24.92;70.99
80743;SHT31;70142;50.894;6.052;2023-06-22T10:33:31;24.71;73.43
80743;SHT31;70142;50.894;6.052;2023-06-22T10:36:08;24.53;75.94
80743;SHT31;70142;50.894;6.052;2023-06-22T10:38:42;24.30;75.69
80743;SHT31;70142;50.894;6.052;2023-06-22T10:41:15;24.12;76.29
80743;SHT31;70142;50.894;6.052;2023-06-22T10:43:48;23.93;77.98
80743;SHT31;70142;50.894;6.052;2023-06-22T10:46:24;23.56;78.24
80743;SHT31;70142;50.894;6.052;2023-06-22T10:48:58;23.38;78.43
80743;SHT31;70142;50.894;6.052;2023-06-22T10:51:31;23.41;77.12
80743;SHT31;70142;50.894;6.052;2023-06-22T10:54:05;23.55;79.68
80743;SHT31;70142;50.894;6.052;2023-06-22T10:56:39;23.72;78.80
80743;SHT31;70142;50.894;6.052;2023-06-22T10:59:12;23.95;79.59
80743;SHT31;70142;50.894;6.052;2023-06-22T11:01:45;23.97;78.04
80743;SHT31;70142;50.894;6.052;2023-06-22T11:04:22;24.02;77.63
80743;SHT31;70142;50.894;6.052;2023-06-22T11:06:55;24.27;76.81
80743;SHT31;70142;50.894;6.052;2023-06-22T11:09:29;24.63;75.79
80743;SHT31;70142;50.894;6.052;2023-06-22T11:12:02;24.92;76.50
80743;SHT31;70142;50.894;6.052;2023-06-22T11:14:36;25.58;73.98
80743;SHT31;70142;50.894;6.052;2023-06-22T11:17:09;26.14;73.22
80743;SHT31;70142;50.894;6.052;2023-06-22T11:19:44;26.44;71.11
80743;SHT31;70142;50.894;6.052;2023-06-22T11:22:17;26.67;71.78
80743;SHT31;70142;50.894;6.052;2023-06-22T11:24:50;26.48;72.25
80743;SHT31;70142;50.894;6.052;2023-06-22T11:27:23;26.59;70.04
80743;SHT31;70142;50.894;6.052;2023-06-22T11:29:57;26.17;70.93
80743;SHT31;70142;50.894;6.052;2023-06-22T11:32:30;26.18;69.97
80743;SHT31;70142;50.894;6.052;2023-06-22T11:35:05;26.45;71.83
80743;SHT31;70142;50.894;6.052;2023-06-22T11:37:39;26.27;69.47
80743;SHT31;70142;50.894;6.052;2023-06-22T11:40:14;26.43;71.70
80743;SHT31;70142;50.894;6.052;2023-06-22T11:42:49;27.12;69.49
80743;SHT31;70142;50.894;6.052;2023-06-22T11:45:22;27.00;68.14
80743;SHT31;70142;50.894;6.052;2023-06-22T11:47:55;26.62;67.73
80743;SHT31;70142;50.894;6.052;2023-06-22T11:50:30;26.75;67.56
80743;SHT31;70142;50.894;6.052;2023-06-22T11:53:07;26.24;69.56
80743;SHT31;70142;50.894;6.052;2023-06-22T11:55:40;26.13;69.52
80743;SHT31;70142;50.894;6.052;2023-06-22T11:58:15;26.28;69.99
80743;SHT31;70142;50.894;6.052;2023-06-22T12:00:48;26.00;69.79
80743;SHT31;70142;50.894;6.052;2023-06-22T12:03:23;26.03;71.13
80743;SHT31;70142;50.894;6.052;2023-06-22T12:06:00;26.24;69.73
80743;SHT31;70142;50.894;6.052;2023-06-22T12:08:33;26.55;69.14
80743;SHT31;70142;50.894;6.052;2023-06-22T12:11:08;26.37;69.85
80743;SHT31;70142;50.894;6.052;2023-06-22T12:13:42;26.27;69.72
80743;SHT31;70142;50.894;6.052;2023-06-22T12:16:15;26.24;70.04
80743;SHT31;70142;50.894;6.052;2023-06-22T12:18:48;25.84;70.65
80743;SHT31;70142;50.894;6.052;2023-06-22T12:21:25;25.41;70.48
80743;SHT31;70142;50.894;6.052;2023-06-22T12:23:59;25.09;71.79
80743;SHT31;70142;50.894;6.052;2023-06-22T12:26:32;25.07;72.28
80743;SHT31;70142;50.894;6.052;2023-06-22T12:29:05;24.91;72.35
80743;SHT31;70142;50.894;6.052;2023-06-22T12:31:38;25.07;72.22
80743;SHT31;70142;50.894;6.052;2023-06-22T12:34:13;25.28;71.55
80743;SHT31;70142;50.894;6.052;2023-06-22T12:36:50;25.16;71.80
80743;SHT31;70142;50.894;6.052;2023-06-22T12:39:26;25.49;71.17
80743;SHT31;70142;50.894;6.052;2023-06-22T12:41:59;25.45;71.42
80743;SHT31;70142;50.894;6.052;2023-06-22T12:44:32;25.36;71.49
80743;SHT31;70142;50.894;6.052;2023-06-22T12:47:06;25.14;71.92
80743;SHT31;70142;50.894;6.052;2023-06-22T12:49:40;24.95;72.96
80743;SHT31;70142;50.894;6.052;2023-06-22T12:52:14;24.98;73.25
80743;SHT31;70142;50.894;6.052;2023-06-22T12:54:48;24.69;74.19
80743;SHT31;70142;50.894;6.052;2023-06-22T12:57:26;24.48;74.81
80743;SHT31;70142;50.894;6.052;2023-06-22T12:59:59;24.41;75.43
80743;SHT31;70142;50.894;6.052;2023-06-22T13:02:33;24.48;75.36
80743;SHT31;70142;50.894;6.052;2023-06-22T13:05:06;24.43;74.63
80743;SHT31;70142;50.894;6.052;2023-06-22T13:07:41;24.34;74.73
80743;SHT31;70142;50.894;6.052;2023-06-22T13:10:15;24.03;75.92
80743;SHT31;70142;50.894;6.052;2023-06-22T13:12:48;23.86;76.16
80743;SHT31;70142;50.894;6.052;2023-06-22T13:15:21;23.85;76.77
80743;SHT31;70142;50.894;6.052;2023-06-22T13:17:55;23.79;77.03
80743;SHT31;70142;50.894;6.052;2023-06-22T13:20:28;23.58;77.00
80743;SHT31;70142;50.894;6.052;2023-06-22T13:23:03;23.87;75.93
80743;SHT31;70142;50.894;6.052;2023-06-22T13:25:39;24.38;74.56
80743;SHT31;70142;50.894;6.052;2023-06-22T13:28:12;24.21;74.77
80743;SHT31;70142;50.894;6.052;2023-06-22T13:30:59;23.97;74.62
80743;SHT31;70142;50.894;6.052;2023-06-22T13:33:35;23.85;75.25
80743;SHT31;70142;50.894;6.052;2023-06-22T13:36:08;24.14;74.45
80743;SHT31;70142;50.894;6.052;2023-06-22T13:38:42;23.90;74.70
80743;SHT31;70142;50.894;6.052;2023-06-22T13:41:16;23.63;75.12
80743;SHT31;70142;50.894;6.052;2023-06-22T13:43:49;23.25;76.19
80743;SHT31;70142;50.894;6.052;2023-06-22T13:46:22;23.25;76.63
80743;SHT31;70142;50.894;6.052;2023-06-22T13:48:56;23.32;76.64
80743;SHT31;70142;50.894;6.052;2023-06-22T13:51:29;23.15;77.32
80743;SHT31;70142;50.894;6.052;2023-06-22T13:54:03;23.22;77.38
80743;SHT31;70142;50.894;6.052;2023-06-22T13:56:45;23.28;77.65
80743;SHT31;70142;50.894;6.052;2023-06-22T13:59:18;23.07;78.56
80743;SHT31;70142;50.894;6.052;2023-06-22T14:01:55;23.07;78.96
80743;SHT31;70142;50.894;6.052;2023-06-22T14:04:28;23.14;78.42
80743;SHT31;70142;50.894;6.052;2023-06-22T14:07:01;23.07;78.59
80743;SHT31;70142;50.894;6.052;2023-06-22T14:09:36;22.98;78.62
80743;SHT31;70142;50.894;6.052;2023-06-22T14:12:10;23.01;78.28
80743;SHT31;70142;50.894;6.052;2023-06-22T14:14:43;22.90;78.99
80743;SHT31;70142;50.894;6.052;2023-06-22T14:17:17;22.88;79.05
80743;SHT31;70142;50.894;6.052;2023-06-22T14:19:55;22.83;79.38
80743;SHT31;70142;50.894;6.052;2023-06-22T14:22:28;22.80;79.98
80743;SHT31;70142;50.894;6.052;2023-06-22T14:25:05;22.68;80.92
80743;SHT31;70142;50.894;6.052;2023-06-22T14:27:38;22.54;80.97
80743;SHT31;70142;50.894;6.052;2023-06-22T14:30:11;22.21;82.42
80743;SHT31;70142;50.894;6.052;2023-06-22T14:32:44;22.02;83.44
80743;SHT31;70142;50.894;6.052;2023-06-22T14:35:18;21.74;84.91
80743;SHT31;70142;50.894;6.052;2023-06-22T14:37:53;21.62;85.68
80743;SHT31;70142;50.894;6.052;2023-06-22T14:40:27;21.55;85.61
80743;SHT31;70142;50.894;6.052;2023-06-22T14:43:06;21.49;85.97
80743;SHT31;70142;50.894;6.052;2023-06-22T14:45:40;21.49;86.37
80743;SHT31;70142;50.894;6.052;2023-06-22T14:48:14;21.42;86.43
80743;SHT31;70142;50.894;6.052;2023-06-22T14:50:47;21.28;86.19
80743;SHT31;70142;50.894;6.052;2023-06-22T14:53:20;21.27;86.21
80743;SHT31;70142;50.894;6.052;2023-06-22T14:55:55;21.24;86.07
80743;SHT31;70142;50.894;6.052;2023-06-22T14:58:28;21.01;86.42
80743;SHT31;70142;50.894;6.052;2023-06-22T15:01:02;20.88;87.01
80743;SHT31;70142;50.894;6.052;2023-06-22T15:03:35;20.73;87.36
80743;SHT31;70142;50.894;6.052;2023-06-22T15:06:09;20.73;87.38
80743;SHT31;70142;50.894;6.052;2023-06-22T15:08:43;20.72;87.27
80743;SHT31;70142;50.894;6.052;2023-06-22T15:11:17;20.76;87.28
80743;SHT31;70142;50.894;6.052;2023-06-22T15:13:50;20.81;87.29
80743;SHT31;70142;50.894;6.052;2023-06-22T15:16:24;20.60;88.41
80743;SHT31;70142;50.894;6.052;2023-06-22T15:18:57;20.28;89.45
80743;SHT31;70142;50.894;6.052;2023-06-22T15:21:30;20.16;90.06
80743;SHT31;70142;50.894;6.052;2023-06-22T15:24:04;19.91;90.51
80743;SHT31;70142;50.894;6.052;2023-06-22T15:26:39;19.75;90.96
80743;SHT31;70142;50.894;6.052;2023-06-22T15:29:12;19.78;91.51
80743;SHT31;70142;50.894;6.052;2023-06-22T15:31:45;19.86;91.67
80743;SHT31;70142;50.894;6.052;2023-06-22T15:34:21;19.91;91.69
80743;SHT31;70142;50.894;6.052;2023-06-22T15:36:54;20.08;91.55
80743;SHT31;70142;50.894;6.052;2023-06-22T15:39:27;20.26;91.24
80743;SHT31;70142;50.894;6.052;2023-06-22T15:42:02;20.36;90.72
80743;SHT31;70142;50.894;6.052;2023-06-22T15:44:35;20.33;89.65
80743;SHT31;70142;50.894;6.052;2023-06-22T15:47:08;20.22;89.85
80743;SHT31;70142;50.894;6.052;2023-06-22T15:49:42;20.08;89.52
80743;SHT31;70142;50.894;6.052;2023-06-22T15:52:15;20.10;90.12
80743;SHT31;70142;50.894;6.052;2023-06-22T15:54:50;20.19;90.54
80743;SHT31;70142;50.894;6.052;2023-06-22T15:57:27;20.18;87.61
80743;SHT31;70142;50.894;6.052;2023-06-22T16:00:01;20.23;87.94
80743;SHT31;70142;50.894;6.052;2023-06-22T16:02:37;20.29;89.04
80743;SHT31;70142;50.894;6.052;2023-06-22T16:05:11;20.29;88.33
80743;SHT31;70142;50.894;6.052;2023-06-22T16:07:44;20.20;87.95
80743;SHT31;70142;50.894;6.052;2023-06-22T16:10:17;20.19;88.23
80743;SHT31;70142;50.894;6.052;2023-06-22T16:12:53;20.19;88.18
80743;SHT31;70142;50.894;6.052;2023-06-22T16:15:26;20.18;88.22
80743;SHT31;70142;50.894;6.052;2023-06-22T16:17:59;20.15;87.82
80743;SHT31;70142;50.894;6.052;2023-06-22T16:20:32;20.16;87.44